Time;durP1;ratioP1;P1;durP2;ratioP2;P2;SDS_P1;SDS_P2;PMS_P1;PMS_P2;Temp;Humidity;BMP_temperature;BMP_pressure;BME280_temperature;BME280_humidity;BME280_pressure;Samples;Min_cycle;Max_cycle;Signal;HPM_P1;HPM_P2
2021/12/01 00:01:29;;;;;;;16.13;10.02;;;0.10;99.90;;;;;;5056057;28;20036;-89
2021/12/01 00:03:55;;;;;;;15.10;9.02;;;0.10;99.90;;;;;;5054475;28;20028;-89
2021/12/01 00:06:20;;;;;;;16.95;10.25;;;0.10;99.90;;;;;;5057676;28;20048;-89
2021/12/01 00:08:46;;;;;;;15.50;9.90;;;0.10;99.90;;;;;;5074004;28;20109;-90
2021/12/01 00:11:12;;;;;;;17.35;10.85;;;0.00;99.90;;;;;;5072981;28;20510;-90
2021/12/01 00:13:38;;;;;;;17.73;10.52;;;0.00;99.90;;;;;;5073006;28;20138;-90
2021/12/01 00:16:04;;;;;;;15.82;9.55;;;0.00;99.90;;;;;;5072931;28;20028;-89
2021/12/01 00:18:30;;;;;;;16.10;10.20;;;0.00;99.90;;;;;;5064447;28;20025;-90
2021/12/01 00:20:57;;;;;;;13.32;9.18;;;-0.10;99.90;;;;;;5052948;28;20021;-90
2021/12/01 00:23:23;;;;;;;15.15;10.30;;;-0.10;99.90;;;;;;5052878;28;20395;-90
2021/12/01 00:25:49;;;;;;;17.75;11.48;;;0.00;99.90;;;;;;5052888;28;20021;-88
2021/12/01 00:28:15;;;;;;;17.65;10.52;;;0.00;99.90;;;;;;5054253;28;20429;-88
2021/12/01 00:30:41;;;;;;;17.02;11.02;;;0.10;99.90;;;;;;5057414;28;20032;-88
2021/12/01 00:33:09;;;;;;;21.67;11.65;;;0.20;99.90;;;;;;5056057;28;20382;-87
2021/12/01 00:35:35;;;;;;;23.10;13.68;;;0.20;99.90;;;;;;5056806;28;20021;-88
2021/12/01 00:38:01;;;;;;;24.35;13.13;;;0.30;99.90;;;;;;5056970;28;20025;-88
2021/12/01 00:40:27;;;;;;;17.88;11.85;;;0.30;99.90;;;;;;5056414;28;20048;-88
2021/12/01 00:42:54;;;;;;;15.07;10.15;;;0.40;99.90;;;;;;5056697;28;20119;-88
2021/12/01 00:45:22;;;;;;;15.52;9.43;;;0.40;99.90;;;;;;5056785;28;20036;-88
2021/12/01 00:47:53;;;;;;;13.63;8.80;;;0.50;99.90;;;;;;5057033;28;20378;-88
2021/12/01 00:50:31;;;;;;;14.35;9.30;;;0.60;99.90;;;;;;5056527;28;20379;-89
2021/12/01 00:56:18;;;;;;;15.60;9.73;;;0.60;99.90;;;;;;5057939;28;20055;-89
2021/12/01 00:58:44;;;;;;;14.55;9.15;;;0.60;99.90;;;;;;5056501;28;20029;-89
2021/12/01 01:01:10;;;;;;;14.13;8.80;;;0.60;99.90;;;;;;5057021;28;20056;-89
2021/12/01 01:03:36;;;;;;;14.57;8.63;;;0.70;99.90;;;;;;5061388;28;20025;-90
2021/12/01 01:06:02;;;;;;;14.45;9.60;;;0.70;99.90;;;;;;5076098;28;20029;-89
2021/12/01 01:08:28;;;;;;;13.07;8.85;;;0.70;99.90;;;;;;5060375;28;20028;-88
2021/12/01 01:16:24;;;;;;;14.27;9.15;;;0.80;99.90;;;;;;5057831;28;20044;-88
2021/12/01 01:18:59;;;;;;;15.15;9.70;;;0.70;99.90;;;;;;5039468;28;20051;-88
2021/12/01 01:21:28;;;;;;;16.17;10.60;;;0.70;99.90;;;;;;5039425;28;20029;-88
2021/12/01 01:23:55;;;;;;;16.02;10.10;;;0.80;99.90;;;;;;5039422;28;20020;-88
2021/12/01 01:26:22;;;;;;;14.73;9.90;;;0.70;99.90;;;;;;5039324;28;20075;-88
2021/12/01 01:28:48;;;;;;;16.35;10.48;;;0.70;99.90;;;;;;5052293;28;20021;-87
2021/12/01 01:31:15;;;;;;;18.13;10.02;;;0.60;99.90;;;;;;5059075;28;20079;-88
2021/12/01 01:33:41;;;;;;;18.38;10.90;;;0.70;99.90;;;;;;5058629;28;20073;-87
2021/12/01 01:36:09;;;;;;;15.90;10.30;;;0.70;99.90;;;;;;5059197;28;20024;-88
2021/12/01 01:38:36;;;;;;;14.68;10.35;;;0.80;99.90;;;;;;5058492;28;20020;-88
2021/12/01 01:41:06;;;;;;;17.83;10.43;;;0.80;99.90;;;;;;5059810;28;20066;-88
2021/12/01 01:43:33;;;;;;;18.55;11.10;;;0.80;99.90;;;;;;5048544;28;20024;-88
2021/12/01 01:45:59;;;;;;;15.80;10.40;;;0.80;99.90;;;;;;5038939;28;20063;-88
2021/12/01 01:48:32;;;;;;;18.50;10.50;;;0.70;99.90;;;;;;5056831;28;20017;-88
2021/12/01 01:51:01;;;;;;;16.63;10.73;;;0.80;99.90;;;;;;5039128;28;20025;-88
2021/12/01 01:53:28;;;;;;;18.08;11.38;;;0.90;99.90;;;;;;5038831;28;20055;-88
2021/12/01 01:55:58;;;;;;;20.42;11.43;;;1.00;99.90;;;;;;5038818;28;20028;-88
2021/12/01 01:58:24;;;;;;;22.65;14.38;;;1.00;99.90;;;;;;5045877;28;20515;-88
2021/12/01 02:01:04;;;;;;;21.30;12.57;;;1.00;99.90;;;;;;5058597;28;20414;-88
2021/12/01 02:03:30;;;;;;;23.08;12.73;;;1.20;99.90;;;;;;5058403;28;20049;-88
2021/12/01 02:05:56;;;;;;;26.42;13.57;;;1.10;99.90;;;;;;5058201;28;20083;-87
2021/12/01 02:08:29;;;;;;;19.70;12.73;;;1.10;99.90;;;;;;5058374;28;20021;-88
2021/12/01 02:10:58;;;;;;;18.95;12.02;;;1.00;99.90;;;;;;5058589;28;20024;-88
2021/12/01 02:13:24;;;;;;;15.55;10.40;;;1.00;99.90;;;;;;5052626;28;20070;-87
2021/12/01 02:15:51;;;;;;;18.90;12.40;;;1.10;99.90;;;;;;5038083;28;20116;-88
2021/12/01 02:18:17;;;;;;;17.13;11.65;;;1.00;99.90;;;;;;5038385;28;20029;-87
2021/12/01 02:21:05;;;;;;;20.45;11.48;;;1.00;99.90;;;;;;5056171;28;20021;-87
2021/12/01 02:23:33;;;;;;;20.58;12.73;;;1.00;99.90;;;;;;5038189;28;20028;-88
2021/12/01 02:25:59;;;;;;;23.02;13.65;;;1.10;99.90;;;;;;5037962;28;20025;-87
2021/12/01 02:28:25;;;;;;;20.30;12.50;;;1.10;99.90;;;;;;5041119;28;20028;-88
2021/12/01 02:30:50;;;;;;;18.48;12.20;;;1.10;99.90;;;;;;5058096;28;20021;-87
2021/12/01 02:33:16;;;;;;;19.05;12.55;;;1.10;99.90;;;;;;5075638;28;20094;-88
2021/12/01 02:35:42;;;;;;;22.88;12.25;;;1.10;99.90;;;;;;5057993;28;20026;-87
2021/12/01 02:38:08;;;;;;;19.33;11.55;;;1.20;99.90;;;;;;5075633;28;20040;-88
2021/12/01 02:40:35;;;;;;;18.30;10.82;;;1.20;99.90;;;;;;5057790;28;20099;-88
2021/12/01 02:43:00;;;;;;;15.45;10.70;;;1.20;99.90;;;;;;5057636;28;20111;-88
2021/12/01 02:45:26;;;;;;;19.10;11.05;;;1.30;99.90;;;;;;5039499;28;20108;-88
2021/12/01 02:47:52;;;;;;;21.52;13.35;;;1.30;99.90;;;;;;5037710;28;20029;-87
2021/12/01 02:50:18;;;;;;;26.83;15.68;;;1.40;99.90;;;;;;5037283;28;20029;-88
2021/12/01 02:52:44;;;;;;;22.30;14.15;;;1.30;99.90;;;;;;5038505;28;20028;-88
2021/12/01 02:55:10;;;;;;;25.83;14.70;;;1.20;99.90;;;;;;5055949;28;20101;-88
2021/12/01 02:57:44;;;;;;;23.75;14.50;;;1.20;99.90;;;;;;5037640;28;20024;-88
2021/12/01 03:00:11;;;;;;;22.83;15.23;;;1.20;99.90;;;;;;5038548;28;20025;-90
2021/12/01 03:02:38;;;;;;;23.77;14.65;;;1.30;99.90;;;;;;5075182;28;20024;-88
2021/12/01 03:05:05;;;;;;;20.20;13.05;;;1.20;99.90;;;;;;5057517;28;20028;-88
2021/12/01 03:07:32;;;;;;;18.95;11.57;;;1.20;99.90;;;;;;5074836;28;20049;-88
2021/12/01 03:09:58;;;;;;;16.55;10.45;;;1.20;99.90;;;;;;5057744;28;20031;-88
2021/12/01 03:12:30;;;;;;;19.95;11.07;;;1.30;99.90;;;;;;5075443;28;20025;-88
2021/12/01 03:14:57;;;;;;;19.15;10.77;;;1.30;99.90;;;;;;5074768;28;20021;-89
2021/12/01 03:17:26;;;;;;;16.88;10.77;;;1.30;99.90;;;;;;5056079;28;20033;-88
2021/12/01 03:19:53;;;;;;;18.77;11.80;;;1.30;99.90;;;;;;5037287;28;20029;-88
2021/12/01 03:22:18;;;;;;;20.80;11.75;;;1.30;99.90;;;;;;5054799;28;20328;-89
2021/12/01 03:24:44;;;;;;;22.10;12.02;;;1.30;99.90;;;;;;5037176;28;20033;-87
2021/12/01 03:27:10;;;;;;;17.92;10.85;;;1.20;99.90;;;;;;5036827;28;20497;-88
2021/12/01 03:29:36;;;;;;;20.65;11.90;;;1.20;99.90;;;;;;5054851;28;20068;-88
2021/12/01 03:32:02;;;;;;;20.67;10.43;;;1.10;99.90;;;;;;5038065;28;20471;-88
2021/12/01 03:34:29;;;;;;;18.50;10.50;;;1.00;99.90;;;;;;5036907;28;20029;-87
2021/12/01 03:36:54;;;;;;;21.77;11.57;;;1.00;99.90;;;;;;5036994;28;20020;-87
2021/12/01 03:39:20;;;;;;;24.17;12.25;;;0.90;99.90;;;;;;5036812;28;20479;-87
2021/12/01 03:41:46;;;;;;;23.55;11.68;;;0.90;99.90;;;;;;5036571;28;20155;-87
2021/12/01 03:44:12;;;;;;;19.55;11.30;;;0.80;99.90;;;;;;5036548;28;20029;-87
2021/12/01 03:46:38;;;;;;;22.83;12.32;;;0.80;99.90;;;;;;5048689;28;20048;-87
2021/12/01 03:49:03;;;;;;;26.50;13.52;;;0.80;99.90;;;;;;5074401;28;20031;-87
2021/12/01 03:51:29;;;;;;;21.98;11.82;;;0.70;99.90;;;;;;5056448;28;20111;-87
2021/12/01 03:53:55;;;;;;;25.42;12.15;;;0.80;99.90;;;;;;5056552;28;20016;-90
2021/12/01 03:56:21;;;;;;;23.17;12.68;;;0.80;99.90;;;;;;5056551;28;20107;-89
2021/12/01 03:58:47;;;;;;;30.73;11.88;;;0.80;99.90;;;;;;5074488;28;20052;-89
2021/12/01 04:01:13;;;;;;;31.02;13.10;;;0.80;99.90;;;;;;5056814;28;20383;-89
2021/12/01 04:03:39;;;;;;;25.65;11.30;;;0.80;99.90;;;;;;5044363;28;20124;-89
2021/12/01 04:06:05;;;;;;;29.45;11.57;;;0.80;99.90;;;;;;5036021;28;20132;-89
2021/12/01 04:08:33;;;;;;;22.52;11.05;;;0.90;99.90;;;;;;5037124;28;20337;-89
2021/12/01 04:10:59;;;;;;;19.77;10.38;;;0.90;99.90;;;;;;5036270;28;20075;-90
2021/12/01 04:13:25;;;;;;;20.88;10.43;;;0.90;99.90;;;;;;5036198;28;20016;-90
2021/12/01 04:15:50;;;;;;;21.55;10.30;;;1.00;99.90;;;;;;5036338;28;20485;-90
2021/12/01 04:18:16;;;;;;;16.50;9.20;;;1.10;99.90;;;;;;5036257;28;20510;-88
2021/12/01 04:20:42;;;;;;;16.55;9.65;;;1.10;99.90;;;;;;5037625;28;20036;-88
2021/12/01 04:23:08;;;;;;;15.20;9.00;;;1.10;99.90;;;;;;5065920;28;20051;-88
2021/12/01 04:25:34;;;;;;;14.32;9.02;;;1.00;99.90;;;;;;5053866;28;20048;-89
2021/12/01 04:27:59;;;;;;;13.90;9.20;;;1.10;99.90;;;;;;5036269;28;20033;-91
2021/12/01 04:30:26;;;;;;;25.88;9.65;;;0.90;99.90;;;;;;5036158;28;20108;-90
2021/12/01 04:32:54;;;;;;;13.93;8.70;;;0.90;99.90;;;;;;5036014;28;20472;-90
2021/12/01 04:35:23;;;;;;;14.65;9.43;;;0.80;99.90;;;;;;5036216;28;20112;-91
2021/12/01 04:37:49;;;;;;;16.13;9.07;;;0.80;99.90;;;;;;5035978;28;20029;-88
2021/12/01 04:40:16;;;;;;;14.70;8.95;;;0.80;99.90;;;;;;5037276;28;20017;-86
2021/12/01 04:42:43;;;;;;;16.20;9.50;;;0.80;99.90;;;;;;5062768;28;20031;-88
2021/12/01 04:45:14;;;;;;;16.20;9.70;;;0.90;99.90;;;;;;5040358;28;20038;-89
2021/12/01 04:47:46;;;;;;;17.45;10.45;;;0.90;99.90;;;;;;5035963;28;20053;-90
2021/12/01 04:50:15;;;;;;;16.40;10.07;;;0.80;99.90;;;;;;5035943;28;20025;-90
2021/12/01 04:52:41;;;;;;;20.42;10.32;;;0.80;99.90;;;;;;5036088;28;20079;-92
2021/12/01 04:55:08;;;;;;;21.15;11.65;;;0.80;99.90;;;;;;5036367;28;20021;-90
2021/12/01 04:57:34;;;;;;;19.95;11.57;;;0.70;99.90;;;;;;5035875;28;20033;-89
2021/12/01 05:00:00;;;;;;;18.90;11.65;;;0.70;99.90;;;;;;5048080;28;20032;-92
2021/12/01 05:02:25;;;;;;;19.83;11.70;;;0.70;99.90;;;;;;5055843;28;20486;-89
2021/12/01 05:04:51;;;;;;;18.98;10.80;;;0.60;99.90;;;;;;5055752;28;20024;-89
2021/12/01 05:07:17;;;;;;;19.23;11.50;;;0.60;99.90;;;;;;5073337;28;20048;-89
2021/12/01 05:09:43;;;;;;;19.98;11.35;;;0.60;99.90;;;;;;5055267;28;20091;-89
2021/12/01 05:12:09;;;;;;;19.30;10.85;;;0.70;99.90;;;;;;5056095;28;20111;-89
2021/12/01 05:14:36;;;;;;;19.95;11.88;;;0.60;99.90;;;;;;5057958;28;20022;-90
2021/12/01 05:17:03;;;;;;;20.33;12.88;;;0.70;99.90;;;;;;5060023;28;20021;-90
2021/12/01 05:19:28;;;;;;;20.40;12.60;;;0.70;99.90;;;;;;5059358;28;20386;-89
2021/12/01 05:21:55;;;;;;;20.13;12.30;;;0.70;99.90;;;;;;5057816;28;20025;-90
2021/12/01 05:24:20;;;;;;;22.20;12.40;;;0.60;99.90;;;;;;5059224;28;20367;-90
2021/12/01 05:26:47;;;;;;;22.95;12.48;;;0.60;99.90;;;;;;5059767;28;20051;-87
2021/12/01 15:48:19;;;;;;;23.77;14.77;;;1.90;99.90;;;;;;5092303;28;20706;-90
2021/12/01 15:50:45;;;;;;;22.65;16.27;;;1.90;99.90;;;;;;5073686;28;20090;-90
2021/12/01 15:53:13;;;;;;;30.42;17.75;;;1.90;99.90;;;;;;5091736;28;20028;-89
2021/12/01 15:55:38;;;;;;;36.60;19.45;;;1.80;99.90;;;;;;5073378;28;20368;-90
2021/12/01 15:58:05;;;;;;;30.42;19.70;;;0.70;99.90;;;;;;5073762;28;20078;-90
2021/12/01 16:00:31;;;;;;;21.85;14.90;;;0.70;99.90;;;;;;5073664;28;20035;-91
2021/12/01 16:02:58;;;;;;;22.65;16.00;;;0.70;99.90;;;;;;5071574;28;20374;-89
2021/12/01 16:05:25;;;;;;;22.23;15.82;;;0.70;99.90;;;;;;5073445;28;20036;-89
2021/12/01 16:07:52;;;;;;;27.83;17.75;;;0.80;99.90;;;;;;5071884;28;20077;-89
2021/12/01 16:10:18;;;;;;;71.45;40.08;;;0.80;99.90;;;;;;5062178;28;20020;-89
2021/12/01 16:12:44;;;;;;;43.80;26.45;;;0.80;99.90;;;;;;5073511;28;20020;-90
2021/12/01 16:15:11;;;;;;;23.33;16.00;;;0.80;99.90;;;;;;5073408;28;20021;-89
2021/12/01 16:17:38;;;;;;;24.38;17.17;;;0.80;99.90;;;;;;5054926;28;20036;-90
2021/12/01 16:20:12;;;;;;;19.42;13.45;;;0.80;99.90;;;;;;5053033;28;20028;-89
2021/12/01 16:22:42;;;;;;;20.40;15.55;;;0.80;99.90;;;;;;5053385;28;20024;-90
2021/12/01 16:25:09;;;;;;;21.75;14.18;;;0.80;99.90;;;;;;5053136;28;20029;-89
2021/12/01 16:27:35;;;;;;;23.42;15.05;;;0.80;99.90;;;;;;5052894;28;20079;-89
2021/12/01 16:30:09;;;;;;;22.50;14.38;;;0.80;99.90;;;;;;5052869;28;20049;-90
2021/12/01 16:32:36;;;;;;;16.80;11.45;;;0.80;99.90;;;;;;5052959;28;20023;-89
2021/12/01 16:35:04;;;;;;;19.27;12.30;;;0.80;99.90;;;;;;5053227;28;20459;-89
2021/12/01 16:37:30;;;;;;;17.85;11.70;;;0.70;99.90;;;;;;5052642;28;20131;-89
2021/12/01 16:39:56;;;;;;;18.15;11.00;;;0.70;99.90;;;;;;5052959;28;20052;-90
2021/12/01 16:42:22;;;;;;;13.32;8.95;;;0.80;99.90;;;;;;5052711;28;20024;-89
2021/12/01 16:44:48;;;;;;;18.13;9.00;;;0.70;99.90;;;;;;5052702;28;20067;-89
2021/12/01 16:47:14;;;;;;;11.98;8.52;;;0.70;99.90;;;;;;5041081;28;20068;-90
2021/12/01 16:49:41;;;;;;;13.93;9.15;;;0.60;99.90;;;;;;5033175;28;20207;-89
2021/12/01 16:52:07;;;;;;;12.82;8.25;;;0.50;99.90;;;;;;5032954;28;20018;-90
2021/12/01 16:54:33;;;;;;;10.07;7.45;;;0.60;99.90;;;;;;5032883;28;20027;-90
2021/12/01 16:56:59;;;;;;;10.55;7.22;;;0.50;99.90;;;;;;5032829;28;20053;-90
2021/12/01 16:59:25;;;;;;;12.55;8.93;;;0.50;99.90;;;;;;5020771;28;20060;-90
2021/12/01 17:01:54;;;;;;;18.80;7.70;;;0.40;99.90;;;;;;5019440;28;20388;-90
2021/12/01 17:04:25;;;;;;;11.63;7.20;;;0.30;99.90;;;;;;5019514;28;20021;-90
2021/12/01 17:07:08;;;;;;;11.38;6.97;;;0.30;99.90;;;;;;5019414;28;20032;-90
2021/12/01 17:09:35;;;;;;;12.70;6.55;;;0.20;99.90;;;;;;5019259;28;20021;-89
2021/12/01 17:12:00;;;;;;;12.95;6.30;;;0.20;99.90;;;;;;5018479;28;20026;-87
2021/12/01 17:14:26;;;;;;;9.10;6.47;;;0.20;99.90;;;;;;5037234;28;20356;-89
2021/12/01 17:16:53;;;;;;;10.23;5.90;;;0.30;99.90;;;;;;5038588;28;20032;-88
2021/12/01 17:19:20;;;;;;;12.35;6.80;;;0.30;99.90;;;;;;5038680;28;20402;-88
2021/12/01 17:21:46;;;;;;;12.60;6.82;;;0.30;99.90;;;;;;5038515;28;20104;-89
2021/12/01 17:24:12;;;;;;;12.90;6.38;;;0.30;99.90;;;;;;5038272;28;20112;-89
2021/12/01 17:26:38;;;;;;;13.18;6.60;;;0.30;99.90;;;;;;5038279;28;20379;-88
2021/12/01 17:29:04;;;;;;;11.95;7.50;;;0.20;99.90;;;;;;5038178;28;20074;-88
2021/12/01 17:31:35;;;;;;;12.55;7.10;;;0.20;99.90;;;;;;5038373;28;20028;-88
2021/12/01 17:34:01;;;;;;;13.07;6.75;;;0.20;99.90;;;;;;5038055;28;20029;-88
2021/12/01 17:36:27;;;;;;;11.73;6.50;;;0.20;99.90;;;;;;5038128;28;20036;-91
2021/12/01 17:38:53;;;;;;;15.18;8.48;;;0.10;99.90;;;;;;5038355;28;20028;-90
2021/12/01 17:41:20;;;;;;;11.57;6.53;;;0.00;99.90;;;;;;5038841;28;20098;-91
2021/12/01 17:43:46;;;;;;;10.90;6.75;;;0.10;99.90;;;;;;5038474;28;20104;-91
2021/12/01 17:46:16;;;;;;;10.32;6.03;;;0.00;99.90;;;;;;5041234;28;20041;-91
2021/12/01 17:48:44;;;;;;;10.03;5.17;;;0.00;99.90;;;;;;5059445;28;20459;-91
2021/12/01 17:51:16;;;;;;;10.20;5.75;;;-0.10;99.90;;;;;;5058154;28;20262;-89
2021/12/01 17:53:43;;;;;;;8.95;5.10;;;0.00;99.90;;;;;;5057610;28;20021;-89
2021/12/01 17:56:10;;;;;;;8.57;5.22;;;-0.10;99.90;;;;;;5057250;28;20024;-90
2021/12/01 17:58:38;;;;;;;9.65;5.18;;;-0.10;99.90;;;;;;5057839;28;20094;-89
2021/12/01 18:01:04;;;;;;;11.70;6.25;;;-0.10;99.90;;;;;;5057399;28;20039;-89
2021/12/01 18:03:30;;;;;;;9.52;5.60;;;-0.10;99.90;;;;;;5057573;28;20107;-88
2021/12/01 18:05:56;;;;;;;9.48;5.35;;;-0.20;99.90;;;;;;5057401;28;20463;-88
2021/12/01 18:08:22;;;;;;;6.90;4.68;;;-0.20;99.90;;;;;;5057270;28;20027;-88
2021/12/01 18:10:48;;;;;;;7.82;4.95;;;-0.20;99.90;;;;;;5056416;28;20024;-88
2021/12/01 18:13:14;;;;;;;17.92;10.32;;;-0.20;99.90;;;;;;5057238;28;20021;-88
2021/12/01 18:15:41;;;;;;;12.98;6.97;;;-0.20;99.90;;;;;;5057285;28;20155;-88
2021/12/01 18:18:08;;;;;;;13.73;7.32;;;-0.20;99.90;;;;;;5057287;28;20032;-88
2021/12/01 18:20:35;;;;;;;12.48;6.93;;;-0.20;99.90;;;;;;5057060;28;20024;-88
2021/12/01 18:23:00;;;;;;;18.88;7.00;;;-0.20;99.90;;;;;;5056109;28;20048;-88
2021/12/01 18:25:27;;;;;;;15.98;7.60;;;-0.20;99.90;;;;;;5057121;28;20086;-88
2021/12/01 18:27:53;;;;;;;16.63;9.10;;;-0.30;99.90;;;;;;5040329;28;20106;-90
2021/12/01 18:30:20;;;;;;;16.13;8.93;;;-0.30;99.90;;;;;;5055899;28;20033;-90
2021/12/01 18:32:45;;;;;;;14.30;8.50;;;-0.40;99.90;;;;;;5057230;28;20023;-89
2021/12/01 18:35:12;;;;;;;15.52;9.90;;;-0.50;99.90;;;;;;5057251;28;20025;-89
2021/12/01 18:37:39;;;;;;;17.98;11.38;;;-0.50;99.90;;;;;;5057159;28;20028;-89
2021/12/01 18:40:07;;;;;;;15.55;9.35;;;-0.50;99.90;;;;;;5057070;28;20030;-89
2021/12/01 18:42:33;;;;;;;13.60;8.48;;;-0.50;99.90;;;;;;5057437;28;20075;-89
2021/12/01 18:44:59;;;;;;;13.98;8.45;;;-0.50;99.90;;;;;;5056653;28;20479;-90
2021/12/01 18:47:25;;;;;;;18.80;11.57;;;-0.60;99.90;;;;;;5043988;28;20057;-89
2021/12/01 18:49:51;;;;;;;23.92;14.23;;;-0.60;99.90;;;;;;5020393;28;20503;-89
2021/12/01 18:52:17;;;;;;;31.10;17.50;;;-0.60;99.90;;;;;;5017028;28;20083;-89
2021/12/01 18:54:43;;;;;;;43.05;26.00;;;-0.70;99.90;;;;;;5016988;28;20468;-90
2021/12/01 18:57:08;;;;;;;35.47;21.42;;;-0.70;99.90;;;;;;5017082;28;20030;-90
2021/12/01 18:59:34;;;;;;;41.03;21.67;;;-0.70;99.90;;;;;;5029537;28;20586;-89
2021/12/01 19:02:00;;;;;;;64.28;32.90;;;-0.70;99.90;;;;;;5023832;28;20025;-89
2021/12/01 19:04:26;;;;;;;68.45;29.85;;;-0.80;99.90;;;;;;5035856;28;20037;-89
2021/12/01 19:06:52;;;;;;;52.38;25.38;;;-0.90;99.90;;;;;;5016804;28;20025;-89
2021/12/01 19:09:19;;;;;;;65.30;31.23;;;-0.90;99.90;;;;;;5016747;28;20079;-89
2021/12/01 19:11:45;;;;;;;29.58;15.65;;;-0.90;99.90;;;;;;5016410;28;20028;-89
2021/12/01 19:14:12;;;;;;;32.60;14.38;;;-1.00;99.90;;;;;;5018136;28;20025;-89
2021/12/01 19:16:39;;;;;;;34.70;19.30;;;-1.00;99.90;;;;;;5016777;28;20032;-89
2021/12/01 19:19:06;;;;;;;24.88;14.65;;;-1.00;99.90;;;;;;5044842;28;20059;-89
2021/12/01 19:21:32;;;;;;;25.30;13.95;;;-1.00;99.90;;;;;;5036162;28;20059;-90
2021/12/01 19:23:58;;;;;;;33.53;16.73;;;-1.00;99.90;;;;;;5017587;28;20037;-89
2021/12/01 19:26:25;;;;;;;29.73;16.23;;;-1.00;99.90;;;;;;5018511;28;20120;-89
2021/12/01 19:28:51;;;;;;;28.10;14.32;;;-0.90;99.90;;;;;;5019334;28;20120;-88
2021/12/01 19:31:17;;;;;;;27.17;14.68;;;-0.90;99.90;;;;;;5022470;28;20108;-88
2021/12/01 19:33:44;;;;;;;64.65;29.02;;;-0.80;99.90;;;;;;5037163;28;20032;-89
2021/12/01 19:36:11;;;;;;;88.03;39.13;;;-0.80;99.90;;;;;;5036346;28;20553;-89
2021/12/01 19:38:38;;;;;;;52.03;25.20;;;-0.80;99.90;;;;;;5036105;28;20018;-89
2021/12/01 19:41:05;;;;;;;39.92;20.90;;;-0.80;99.90;;;;;;5032394;28;20023;-89
2021/12/01 19:43:32;;;;;;;35.35;19.10;;;-0.80;99.90;;;;;;5016570;28;20033;-89
2021/12/01 19:45:59;;;;;;;34.65;17.98;;;-0.80;99.90;;;;;;5017141;28;20029;-89
2021/12/01 19:48:25;;;;;;;33.08;16.33;;;-0.80;99.90;;;;;;5036310;28;20033;-90
2021/12/01 19:50:51;;;;;;;37.85;17.50;;;-0.80;99.90;;;;;;5054388;28;20116;-89
2021/12/01 19:53:19;;;;;;;40.42;18.90;;;-0.80;99.90;;;;;;5036085;28;20132;-89
2021/12/01 19:55:48;;;;;;;45.58;20.02;;;-0.90;99.90;;;;;;5036419;28;20395;-89
2021/12/01 19:58:14;;;;;;;42.97;17.13;;;-0.90;99.90;;;;;;5050426;28;20509;-90
2021/12/01 20:00:40;;;;;;;30.83;15.15;;;-1.00;99.90;;;;;;5056103;28;20225;-89
2021/12/01 20:03:06;;;;;;;30.88;14.77;;;-1.10;99.90;;;;;;5049655;28;20153;-90
2021/12/01 20:05:34;;;;;;;34.42;16.58;;;-1.10;99.90;;;;;;5036028;28;20029;-90
2021/12/01 20:08:01;;;;;;;36.70;16.45;;;-1.00;99.90;;;;;;5036126;28;20025;-90
2021/12/01 20:10:28;;;;;;;32.28;15.90;;;-1.00;99.90;;;;;;5047146;28;20211;-90
2021/12/01 20:12:57;;;;;;;35.50;16.08;;;-1.00;99.90;;;;;;5048713;28;20028;-90
2021/12/01 20:15:25;;;;;;;38.63;17.08;;;-0.80;99.90;;;;;;5055808;28;20126;-90
2021/12/01 20:17:51;;;;;;;41.88;18.08;;;-0.90;99.90;;;;;;5053216;28;20033;-90
2021/12/01 20:20:19;;;;;;;40.78;19.98;;;-0.90;99.90;;;;;;5055330;28;20040;-90
2021/12/01 20:22:48;;;;;;;41.38;19.85;;;-0.90;99.90;;;;;;5036226;28;20029;-90
2021/12/01 20:25:20;;;;;;;46.67;21.55;;;-1.00;99.90;;;;;;5037509;28;20112;-90
2021/12/01 20:27:48;;;;;;;47.63;20.90;;;-1.00;99.90;;;;;;5036081;28;20079;-90
2021/12/01 20:30:15;;;;;;;58.95;26.40;;;-1.00;99.90;;;;;;5040616;28;20056;-90
2021/12/01 20:32:43;;;;;;;57.65;24.90;;;-1.00;99.90;;;;;;5038321;28;20035;-91
2021/12/01 20:35:11;;;;;;;119.22;51.83;;;-1.00;99.90;;;;;;5049093;28;20375;-90
2021/12/01 20:37:38;;;;;;;60.78;29.40;;;-1.00;99.90;;;;;;5052396;28;20126;-90
2021/12/01 20:40:06;;;;;;;61.55;28.48;;;-1.00;99.90;;;;;;5059591;28;20064;-90
2021/12/01 20:42:38;;;;;;;46.10;23.30;;;-1.00;99.90;;;;;;5055342;28;20043;-90
2021/12/01 20:45:06;;;;;;;46.75;22.20;;;-1.00;99.90;;;;;;5059385;28;20394;-90
2021/12/01 20:58:12;;;;;;;22.98;12.20;;;-1.20;99.90;;;;;;5064074;28;20102;-89
2021/12/01 21:03:22;;;;;;;31.08;15.52;;;-1.20;99.90;;;;;;5067500;28;20036;-89
2021/12/01 21:05:57;;;;;;;23.75;12.85;;;-1.30;99.90;;;;;;5039112;28;20025;-89
2021/12/01 21:08:26;;;;;;;30.70;15.95;;;-1.30;99.90;;;;;;5039364;28;20021;-88
2021/12/01 21:11:10;;;;;;;28.95;14.40;;;-1.40;99.90;;;;;;5059130;28;20021;-90
2021/12/01 21:13:38;;;;;;;21.77;11.60;;;-1.40;99.90;;;;;;5058875;28;20029;-90
2021/12/01 21:16:05;;;;;;;20.48;10.75;;;-1.40;99.90;;;;;;5058813;28;20027;-90
2021/12/01 21:18:30;;;;;;;24.30;12.48;;;-1.40;99.90;;;;;;5058918;28;20055;-90
2021/12/01 21:20:57;;;;;;;22.52;11.10;;;-1.50;99.90;;;;;;5058096;28;20071;-90
2021/12/01 21:23:24;;;;;;;27.50;12.80;;;-1.50;99.90;;;;;;5059027;28;20064;-90
2021/12/01 21:25:58;;;;;;;28.05;13.55;;;-1.50;99.90;;;;;;5058671;28;20021;-92
2021/12/01 21:28:28;;;;;;;34.35;15.35;;;-1.50;99.90;;;;;;5059064;28;20390;-92
2021/12/01 21:30:56;;;;;;;32.95;14.38;;;-1.50;99.90;;;;;;5054711;28;20158;-93
2021/12/01 21:33:22;;;;;;;29.80;13.88;;;-1.60;99.90;;;;;;5058802;28;20097;-91
2021/12/01 21:35:49;;;;;;;34.42;13.93;;;-1.60;99.90;;;;;;5040305;28;20019;-91
2021/12/01 21:38:15;;;;;;;31.45;14.60;;;-1.60;99.90;;;;;;5049044;28;20068;-91
2021/12/01 21:40:41;;;;;;;36.80;15.07;;;-1.60;99.90;;;;;;5058649;28;20036;-92
2021/12/01 21:43:07;;;;;;;37.88;16.55;;;-1.60;99.90;;;;;;5058583;28;20029;-92
2021/12/01 21:45:33;;;;;;;34.78;14.75;;;-1.60;99.90;;;;;;5049355;28;20064;-92
2021/12/01 21:47:59;;;;;;;36.83;16.88;;;-1.60;99.90;;;;;;5038174;28;20045;-92
2021/12/01 21:50:25;;;;;;;28.00;13.93;;;-1.60;99.90;;;;;;5047035;28;20024;-92
2021/12/01 21:52:54;;;;;;;23.30;11.98;;;-1.70;99.90;;;;;;5051715;28;20110;-89
2021/12/01 21:55:51;;;;;;;27.95;13.00;;;-1.70;99.90;;;;;;5040630;28;20017;-92
2021/12/01 21:58:18;;;;;;;24.23;11.68;;;-1.70;99.90;;;;;;5038324;28;20039;-92
2021/12/01 22:00:44;;;;;;;28.95;13.63;;;-1.60;99.90;;;;;;5039823;28;20036;-91
2021/12/01 22:03:12;;;;;;;29.58;14.38;;;-1.60;99.90;;;;;;5042834;28;20521;-93
2021/12/01 22:05:39;;;;;;;30.25;13.45;;;-1.60;99.90;;;;;;5038164;28;20095;-93
2021/12/01 22:08:06;;;;;;;26.13;12.32;;;-1.60;99.90;;;;;;5038059;28;20643;-92
2021/12/01 22:10:32;;;;;;;30.33;12.85;;;-1.70;99.90;;;;;;5038130;28;20021;-92
2021/12/01 22:13:00;;;;;;;32.88;16.13;;;-1.60;99.90;;;;;;5038044;28;20028;-92
2021/12/01 22:15:27;;;;;;;34.83;16.20;;;-1.70;99.90;;;;;;5037926;28;20074;-92
2021/12/01 22:17:54;;;;;;;32.35;15.60;;;-1.70;99.90;;;;;;5039505;28;20025;-90
2021/12/01 22:20:22;;;;;;;32.72;13.38;;;-1.70;99.90;;;;;;5037840;28;20025;-92
2021/12/01 22:22:51;;;;;;;31.38;14.52;;;-1.60;99.90;;;;;;5038072;28;20040;-92
2021/12/01 22:25:18;;;;;;;26.88;13.48;;;-1.70;99.90;;;;;;5037731;28;20029;-89
2021/12/01 22:27:45;;;;;;;25.42;12.73;;;-1.70;99.90;;;;;;5037778;28;20031;-89
2021/12/01 22:30:20;;;;;;;25.00;12.13;;;-1.80;99.90;;;;;;5037661;28;20483;-90
2021/12/01 22:32:47;;;;;;;22.75;11.80;;;-1.80;99.90;;;;;;5037976;28;20032;-90
2021/12/01 22:35:14;;;;;;;22.92;11.38;;;-1.80;99.90;;;;;;5037641;28;20028;-90
2021/12/01 22:37:50;;;;;;;22.42;10.95;;;-1.80;99.90;;;;;;5040392;28;20036;-90
2021/12/01 22:40:17;;;;;;;19.55;9.88;;;-1.90;99.90;;;;;;5037973;28;20471;-90
2021/12/01 22:42:45;;;;;;;26.90;10.85;;;-1.80;99.90;;;;;;5037515;28;20074;-89
2021/12/01 22:45:11;;;;;;;23.85;11.43;;;-1.80;99.90;;;;;;5055086;28;20029;-89
2021/12/01 22:47:38;;;;;;;24.65;12.15;;;-1.80;99.90;;;;;;5037300;28;20052;-90
2021/12/01 22:50:06;;;;;;;33.85;15.55;;;-1.80;99.90;;;;;;5037540;28;20032;-89
2021/12/01 22:52:32;;;;;;;40.58;20.70;;;-1.80;99.90;;;;;;5037513;28;20493;-92
2021/12/01 22:54:58;;;;;;;38.85;18.98;;;-1.80;99.90;;;;;;5037412;28;20025;-92
2021/12/01 22:57:25;;;;;;;31.90;16.10;;;-1.80;99.90;;;;;;5036804;28;20052;-92
2021/12/01 23:00:04;;;;;;;28.40;14.13;;;-1.80;99.90;;;;;;5037175;28;20029;-92
2021/12/01 23:02:31;;;;;;;26.17;12.52;;;-1.80;99.90;;;;;;5037217;28;20112;-92
2021/12/01 23:04:58;;;;;;;24.67;12.65;;;-1.80;99.90;;;;;;5036824;28;20028;-89
2021/12/01 23:07:25;;;;;;;26.75;12.02;;;-1.70;99.90;;;;;;5037096;28;20387;-89
2021/12/01 23:09:52;;;;;;;28.05;12.80;;;-1.80;99.90;;;;;;5037055;28;20029;-92
2021/12/01 23:12:20;;;;;;;25.83;13.25;;;-1.80;99.90;;;;;;5037045;28;20110;-89
2021/12/01 23:14:46;;;;;;;24.80;12.52;;;-1.80;99.90;;;;;;5042867;28;20383;-89
2021/12/01 23:17:14;;;;;;;27.15;14.07;;;-1.80;99.90;;;;;;5037077;28;20028;-89